createdAt,value
2022-07-25T00:04:12.090Z,25.97
2022-07-25T00:09:15.320Z,26.47
2022-07-25T00:14:17.945Z,26.00
2022-07-25T00:19:20.658Z,24.88
2022-07-25T00:24:23.578Z,25.72
2022-07-25T00:29:26.160Z,25.23
2022-07-25T00:34:29.032Z,25.68
2022-07-25T00:39:31.839Z,25.77
2022-07-25T00:44:38.343Z,26.19
2022-07-25T00:49:40.867Z,26.15
2022-07-25T00:54:43.821Z,25.52
2022-07-25T00:59:47.749Z,24.66
2022-07-25T01:04:50.775Z,24.59
2022-07-25T01:09:53.775Z,23.79
2022-07-25T01:14:56.396Z,23.78
2022-07-25T01:19:59.341Z,24.00
2022-07-25T01:25:02.093Z,24.83
2022-07-25T01:30:09.851Z,24.63
2022-07-25T01:35:14.503Z,24.74
2022-07-25T01:40:17.833Z,24.48
2022-07-25T01:45:20.538Z,23.94
2022-07-25T01:50:23.358Z,24.14
2022-07-25T01:55:26.413Z,23.93
2022-07-25T02:00:30.766Z,24.01
2022-07-25T02:05:33.559Z,23.39
2022-07-25T02:10:36.302Z,23.94
2022-07-25T02:15:39.987Z,24.99
2022-07-25T02:20:43.452Z,24.22
2022-07-25T02:25:46.103Z,24.16
2022-07-25T02:30:48.935Z,24.50
2022-07-25T02:35:51.711Z,25.09
2022-07-25T02:40:54.503Z,24.44
2022-07-25T02:45:58.911Z,25.09
2022-07-25T02:51:01.671Z,24.44
2022-07-25T02:56:04.460Z,23.83
2022-07-25T03:01:08.563Z,24.71
2022-07-25T03:06:11.434Z,25.14
2022-07-25T03:11:14.645Z,25.10
2022-07-25T03:16:17.641Z,25.05
2022-07-25T03:21:20.498Z,24.94
2022-07-25T03:26:23.447Z,24.35
2022-07-25T03:31:27.959Z,24.40
2022-07-25T03:36:30.769Z,24.78
2022-07-25T03:41:33.837Z,24.86
2022-07-25T03:46:36.550Z,24.56
2022-07-25T03:51:39.259Z,24.44
2022-07-25T03:56:48.040Z,24.95
2022-07-25T04:01:51.952Z,24.84
2022-07-25T04:06:54.780Z,24.65
2022-07-25T04:11:58.208Z,25.02
2022-07-25T04:17:01.055Z,24.93
2022-07-25T04:22:04.091Z,24.68
2022-07-25T04:27:06.661Z,24.72
2022-07-25T04:32:09.739Z,24.41
2022-07-25T04:37:13.239Z,25.06
2022-07-25T04:42:15.869Z,24.74
2022-07-25T04:47:18.590Z,25.14
2022-07-25T04:52:21.518Z,24.87
2022-07-25T04:57:24.542Z,25.13
2022-07-25T05:02:28.415Z,23.88
2022-07-25T05:07:31.348Z,24.33
2022-07-25T05:12:33.935Z,25.48
2022-07-25T05:17:36.563Z,25.59
2022-07-25T05:22:39.393Z,25.56
2022-07-25T05:27:42.450Z,25.63
2022-07-25T05:32:45.384Z,25.93
2022-07-25T05:37:48.676Z,25.94
2022-07-25T05:42:51.391Z,25.37
2022-07-25T05:47:54.172Z,25.84
2022-07-25T05:52:56.798Z,25.35
2022-07-25T05:58:00.238Z,26.76
2022-07-25T06:03:05.811Z,26.79
2022-07-25T06:08:09.867Z,27.21
2022-07-25T06:13:23.778Z,27.37
2022-07-25T06:18:56.263Z,27.56
2022-07-25T06:24:16.108Z,26.68
2022-07-25T06:29:19.162Z,28.00
2022-07-25T06:34:24.723Z,28.27
2022-07-25T06:39:31.908Z,27.93
2022-07-25T06:44:37.317Z,28.61
2022-07-25T06:49:48.877Z,28.98
2022-07-25T06:54:52.602Z,28.84
2022-07-25T06:59:57.591Z,29.20
2022-07-25T07:11:42.628Z,30.01
2022-07-25T07:16:48.535Z,29.62
2022-07-25T07:21:53.569Z,29.81
2022-07-25T07:26:58.815Z,30.39
2022-07-25T07:32:03.200Z,30.53
2022-07-25T07:41:51.638Z,31.10
2022-07-25T07:46:54.950Z,31.07
2022-07-25T18:47:56.379Z,29.59
2022-07-25T18:53:00.460Z,28.86
2022-07-25T18:58:03.743Z,28.04
2022-07-25T19:07:52.066Z,28.90
2022-07-25T19:12:55.331Z,27.26
2022-07-25T19:17:58.482Z,28.64
2022-07-25T19:23:01.910Z,27.92
2022-07-25T19:28:05.874Z,27.73
2022-07-25T19:33:11.857Z,27.65
2022-07-25T19:38:15.192Z,27.26
2022-07-25T19:43:18.409Z,25.31
2022-07-25T19:48:24.591Z,26.10
2022-07-25T19:53:28.732Z,24.43
2022-07-25T19:58:35.407Z,25.37
2022-07-25T20:03:43.114Z,25.42
2022-07-25T20:08:46.332Z,24.47
2022-07-25T20:13:49.636Z,25.65
2022-07-25T20:18:52.852Z,24.55
2022-07-25T20:23:55.921Z,24.13
2022-07-25T20:29:00.066Z,25.25
2022-07-25T20:34:04.360Z,24.17
2022-07-25T20:39:10.285Z,24.45
2022-07-25T20:44:14.588Z,25.00
2022-07-25T20:49:17.855Z,23.97
2022-07-25T20:54:20.894Z,23.10
2022-07-25T20:59:24.009Z,23.98
2022-07-25T21:04:27.114Z,24.48
2022-07-25T21:09:32.711Z,24.69
2022-07-25T21:14:36.186Z,24.74
2022-07-25T21:19:39.329Z,24.74
2022-07-25T21:24:42.837Z,24.28
2022-07-25T21:29:46.874Z,23.80
2022-07-25T21:34:50.875Z,24.21
2022-07-25T21:39:54.918Z,24.40
2022-07-25T21:44:57.961Z,23.53
2022-07-25T21:50:25.079Z,24.08
2022-07-25T21:55:28.407Z,23.50
2022-07-25T22:00:33.461Z,23.81
2022-07-25T22:05:37.086Z,23.47
2022-07-25T22:10:40.583Z,24.05
2022-07-25T22:15:43.910Z,23.47
2022-07-25T22:20:47.208Z,23.50
2022-07-25T22:25:50.693Z,23.55
2022-07-25T22:30:53.973Z,23.82
2022-07-25T22:35:58.428Z,23.27
2022-07-25T22:41:01.580Z,21.62
2022-07-25T22:46:05.221Z,20.94
2022-07-25T22:51:08.413Z,22.65
2022-07-25T22:56:12.075Z,23.06
2022-07-25T23:01:15.201Z,23.30
2022-07-25T23:06:23.472Z,23.65
2022-07-25T23:11:28.121Z,23.12
2022-07-25T23:16:31.577Z,22.33
2022-07-25T23:21:35.290Z,22.19
2022-07-25T23:26:38.691Z,22.22
2022-07-25T23:31:42.408Z,21.86
2022-07-25T23:36:46.096Z,21.74
2022-07-25T23:41:49.371Z,21.54
2022-07-25T23:46:53.724Z,21.71
2022-07-25T23:51:58.460Z,20.75
2022-07-25T23:57:04.766Z,20.93
